sensor_id;sensor_type;location;lat;lon;timestamp;P1;durP1;ratioP1;P2;durP2;ratioP2
28266;SDS011;15525;45.568;5.448;2024-01-30T00:02:13;48.55;;;23.00;;
28266;SDS011;15525;45.568;5.448;2024-01-30T00:04:39;44.97;;;21.92;;
28266;SDS011;15525;45.568;5.448;2024-01-30T00:07:04;39.40;;;21.92;;
28266;SDS011;15525;45.568;5.448;2024-01-30T00:09:30;45.63;;;23.17;;
28266;SDS011;15525;45.568;5.448;2024-01-30T00:11:55;44.67;;;23.38;;
28266;SDS011;15525;45.568;5.448;2024-01-30T00:14:21;45.95;;;23.98;;
28266;SDS011;15525;45.568;5.448;2024-01-30T00:16:46;41.38;;;22.17;;
28266;SDS011;15525;45.568;5.448;2024-01-30T00:19:12;48.35;;;22.10;;
28266;SDS011;15525;45.568;5.448;2024-01-30T00:21:37;41.33;;;22.40;;
28266;SDS011;15525;45.568;5.448;2024-01-30T00:24:03;42.17;;;22.65;;
28266;SDS011;15525;45.568;5.448;2024-01-30T00:26:28;41.50;;;21.92;;
28266;SDS011;15525;45.568;5.448;2024-01-30T00:28:54;46.35;;;23.20;;
28266;SDS011;15525;45.568;5.448;2024-01-30T00:31:19;41.08;;;21.48;;
28266;SDS011;15525;45.568;5.448;2024-01-30T00:33:44;36.72;;;20.80;;
28266;SDS011;15525;45.568;5.448;2024-01-30T00:36:10;38.47;;;20.52;;
28266;SDS011;15525;45.568;5.448;2024-01-30T00:38:36;40.42;;;20.73;;
28266;SDS011;15525;45.568;5.448;2024-01-30T00:41:02;38.78;;;20.17;;
28266;SDS011;15525;45.568;5.448;2024-01-30T00:43:28;39.50;;;20.70;;
28266;SDS011;15525;45.568;5.448;2024-01-30T00:45:54;42.90;;;21.02;;
28266;SDS011;15525;45.568;5.448;2024-01-30T00:48:19;39.80;;;20.98;;
28266;SDS011;15525;45.568;5.448;2024-01-30T00:50:45;40.70;;;20.80;;
28266;SDS011;15525;45.568;5.448;2024-01-30T00:53:11;37.55;;;20.73;;
28266;SDS011;15525;45.568;5.448;2024-01-30T00:55:36;38.05;;;20.08;;
28266;SDS011;15525;45.568;5.448;2024-01-30T00:58:02;38.78;;;19.70;;
28266;SDS011;15525;45.568;5.448;2024-01-30T01:00:28;41.65;;;21.08;;
28266;SDS011;15525;45.568;5.448;2024-01-30T01:02:56;39.53;;;20.73;;
28266;SDS011;15525;45.568;5.448;2024-01-30T01:05:21;41.60;;;21.08;;
28266;SDS011;15525;45.568;5.448;2024-01-30T01:07:47;36.00;;;19.73;;
28266;SDS011;15525;45.568;5.448;2024-01-30T01:10:13;42.75;;;21.52;;
28266;SDS011;15525;45.568;5.448;2024-01-30T01:12:39;41.38;;;20.58;;
28266;SDS011;15525;45.568;5.448;2024-01-30T01:15:05;42.28;;;21.70;;
28266;SDS011;15525;45.568;5.448;2024-01-30T01:17:34;39.30;;;21.17;;
28266;SDS011;15525;45.568;5.448;2024-01-30T01:19:59;40.08;;;21.98;;
28266;SDS011;15525;45.568;5.448;2024-01-30T01:22:25;38.45;;;20.27;;
28266;SDS011;15525;45.568;5.448;2024-01-30T01:24:50;47.70;;;22.25;;
28266;SDS011;15525;45.568;5.448;2024-01-30T01:27:16;41.53;;;22.33;;
28266;SDS011;15525;45.568;5.448;2024-01-30T01:29:41;46.47;;;23.52;;
28266;SDS011;15525;45.568;5.448;2024-01-30T01:32:07;51.00;;;24.83;;
28266;SDS011;15525;45.568;5.448;2024-01-30T01:34:32;43.53;;;22.67;;
28266;SDS011;15525;45.568;5.448;2024-01-30T01:36:58;48.80;;;24.05;;
28266;SDS011;15525;45.568;5.448;2024-01-30T01:39:23;45.40;;;22.98;;
28266;SDS011;15525;45.568;5.448;2024-01-30T01:41:48;49.55;;;24.33;;
28266;SDS011;15525;45.568;5.448;2024-01-30T01:44:14;53.50;;;23.23;;
28266;SDS011;15525;45.568;5.448;2024-01-30T01:46:39;47.85;;;23.23;;
28266;SDS011;15525;45.568;5.448;2024-01-30T01:49:05;43.40;;;22.02;;
28266;SDS011;15525;45.568;5.448;2024-01-30T01:51:31;44.72;;;22.83;;
28266;SDS011;15525;45.568;5.448;2024-01-30T01:53:59;45.22;;;22.25;;
28266;SDS011;15525;45.568;5.448;2024-01-30T01:56:28;46.50;;;22.70;;
28266;SDS011;15525;45.568;5.448;2024-01-30T01:58:55;43.17;;;22.10;;
28266;SDS011;15525;45.568;5.448;2024-01-30T02:01:31;42.28;;;22.40;;
28266;SDS011;15525;45.568;5.448;2024-01-30T02:04:01;42.88;;;22.30;;
28266;SDS011;15525;45.568;5.448;2024-01-30T02:06:27;45.72;;;22.67;;
28266;SDS011;15525;45.568;5.448;2024-01-30T02:08:53;42.70;;;22.38;;
28266;SDS011;15525;45.568;5.448;2024-01-30T02:11:22;46.42;;;23.00;;
28266;SDS011;15525;45.568;5.448;2024-01-30T02:13:49;41.28;;;22.02;;
28266;SDS011;15525;45.568;5.448;2024-01-30T02:16:15;43.00;;;21.10;;
28266;SDS011;15525;45.568;5.448;2024-01-30T02:18:42;42.80;;;22.27;;
28266;SDS011;15525;45.568;5.448;2024-01-30T02:21:10;46.13;;;22.63;;
28266;SDS011;15525;45.568;5.448;2024-01-30T02:23:36;42.28;;;22.10;;
28266;SDS011;15525;45.568;5.448;2024-01-30T02:26:03;51.65;;;23.65;;
28266;SDS011;15525;45.568;5.448;2024-01-30T02:28:28;44.33;;;21.33;;
28266;SDS011;15525;45.568;5.448;2024-01-30T02:30:54;39.08;;;21.15;;
28266;SDS011;15525;45.568;5.448;2024-01-30T02:33:19;41.05;;;21.33;;
28266;SDS011;15525;45.568;5.448;2024-01-30T02:35:46;44.22;;;21.38;;
28266;SDS011;15525;45.568;5.448;2024-01-30T02:38:12;41.55;;;21.58;;
28266;SDS011;15525;45.568;5.448;2024-01-30T02:40:37;40.05;;;21.52;;
28266;SDS011;15525;45.568;5.448;2024-01-30T02:43:03;42.20;;;21.92;;
28266;SDS011;15525;45.568;5.448;2024-01-30T02:45:30;44.25;;;21.98;;
28266;SDS011;15525;45.568;5.448;2024-01-30T02:47:55;42.03;;;21.75;;
28266;SDS011;15525;45.568;5.448;2024-01-30T02:50:20;42.45;;;22.55;;
28266;SDS011;15525;45.568;5.448;2024-01-30T02:52:46;41.67;;;22.60;;
28266;SDS011;15525;45.568;5.448;2024-01-30T02:55:11;40.88;;;21.38;;
28266;SDS011;15525;45.568;5.448;2024-01-30T02:57:38;41.95;;;20.90;;
28266;SDS011;15525;45.568;5.448;2024-01-30T03:00:03;40.25;;;21.73;;
28266;SDS011;15525;45.568;5.448;2024-01-30T03:02:31;38.20;;;20.75;;
28266;SDS011;15525;45.568;5.448;2024-01-30T03:04:57;46.45;;;23.10;;
28266;SDS011;15525;45.568;5.448;2024-01-30T03:07:22;45.53;;;22.73;;
28266;SDS011;15525;45.568;5.448;2024-01-30T03:09:48;43.63;;;21.95;;
28266;SDS011;15525;45.568;5.448;2024-01-30T03:12:13;40.80;;;21.58;;
28266;SDS011;15525;45.568;5.448;2024-01-30T03:14:39;41.65;;;22.80;;
28266;SDS011;15525;45.568;5.448;2024-01-30T03:17:04;41.22;;;21.40;;
28266;SDS011;15525;45.568;5.448;2024-01-30T03:19:30;48.42;;;22.77;;
28266;SDS011;15525;45.568;5.448;2024-01-30T03:21:55;46.00;;;23.08;;
28266;SDS011;15525;45.568;5.448;2024-01-30T03:24:20;43.10;;;21.95;;
28266;SDS011;15525;45.568;5.448;2024-01-30T03:26:46;44.22;;;23.52;;
28266;SDS011;15525;45.568;5.448;2024-01-30T03:29:11;48.90;;;23.65;;
28266;SDS011;15525;45.568;5.448;2024-01-30T03:31:37;43.88;;;23.65;;
28266;SDS011;15525;45.568;5.448;2024-01-30T03:34:02;45.25;;;23.58;;
28266;SDS011;15525;45.568;5.448;2024-01-30T03:36:28;50.85;;;23.95;;
28266;SDS011;15525;45.568;5.448;2024-01-30T03:38:53;44.75;;;22.55;;
28266;SDS011;15525;45.568;5.448;2024-01-30T03:41:19;45.03;;;23.85;;
28266;SDS011;15525;45.568;5.448;2024-01-30T03:43:44;46.03;;;23.70;;
28266;SDS011;15525;45.568;5.448;2024-01-30T03:46:11;50.30;;;25.23;;
28266;SDS011;15525;45.568;5.448;2024-01-30T03:48:37;44.85;;;23.40;;
28266;SDS011;15525;45.568;5.448;2024-01-30T03:51:02;43.03;;;22.83;;
28266;SDS011;15525;45.568;5.448;2024-01-30T03:53:28;49.38;;;24.15;;
28266;SDS011;15525;45.568;5.448;2024-01-30T03:55:53;43.00;;;22.42;;
28266;SDS011;15525;45.568;5.448;2024-01-30T03:58:18;45.00;;;23.38;;
28266;SDS011;15525;45.568;5.448;2024-01-30T04:00:44;42.25;;;23.35;;
28266;SDS011;15525;45.568;5.448;2024-01-30T04:03:09;47.58;;;23.80;;
28266;SDS011;15525;45.568;5.448;2024-01-30T04:05:35;44.08;;;23.58;;
28266;SDS011;15525;45.568;5.448;2024-01-30T04:08:00;44.78;;;23.40;;
28266;SDS011;15525;45.568;5.448;2024-01-30T04:10:26;47.58;;;23.67;;
28266;SDS011;15525;45.568;5.448;2024-01-30T04:12:51;44.75;;;23.23;;
28266;SDS011;15525;45.568;5.448;2024-01-30T04:15:17;48.85;;;23.92;;
28266;SDS011;15525;45.568;5.448;2024-01-30T04:17:43;43.28;;;21.67;;
28266;SDS011;15525;45.568;5.448;2024-01-30T04:20:13;45.90;;;22.80;;
28266;SDS011;15525;45.568;5.448;2024-01-30T04:22:40;45.13;;;22.10;;
28266;SDS011;15525;45.568;5.448;2024-01-30T04:25:07;44.50;;;22.20;;
28266;SDS011;15525;45.568;5.448;2024-01-30T04:27:32;41.55;;;21.88;;
28266;SDS011;15525;45.568;5.448;2024-01-30T04:29:58;43.63;;;22.52;;
28266;SDS011;15525;45.568;5.448;2024-01-30T04:32:23;45.80;;;24.00;;
28266;SDS011;15525;45.568;5.448;2024-01-30T04:34:48;46.47;;;23.35;;
28266;SDS011;15525;45.568;5.448;2024-01-30T04:37:14;49.30;;;24.63;;
28266;SDS011;15525;45.568;5.448;2024-01-30T04:39:39;45.53;;;22.48;;
28266;SDS011;15525;45.568;5.448;2024-01-30T04:42:05;43.72;;;23.05;;
28266;SDS011;15525;45.568;5.448;2024-01-30T04:44:31;49.72;;;24.52;;
28266;SDS011;15525;45.568;5.448;2024-01-30T04:46:56;45.40;;;24.27;;
28266;SDS011;15525;45.568;5.448;2024-01-30T04:49:24;52.80;;;28.27;;
28266;SDS011;15525;45.568;5.448;2024-01-30T04:51:49;50.88;;;26.90;;
28266;SDS011;15525;45.568;5.448;2024-01-30T04:54:14;49.45;;;25.15;;
28266;SDS011;15525;45.568;5.448;2024-01-30T04:56:40;51.08;;;24.77;;
28266;SDS011;15525;45.568;5.448;2024-01-30T04:59:05;46.17;;;24.42;;
28266;SDS011;15525;45.568;5.448;2024-01-30T05:01:31;42.95;;;23.35;;
28266;SDS011;15525;45.568;5.448;2024-01-30T05:03:56;43.92;;;23.20;;
28266;SDS011;15525;45.568;5.448;2024-01-30T05:06:25;48.85;;;24.85;;
28266;SDS011;15525;45.568;5.448;2024-01-30T05:08:51;47.60;;;25.27;;
28266;SDS011;15525;45.568;5.448;2024-01-30T05:11:16;48.13;;;24.45;;
28266;SDS011;15525;45.568;5.448;2024-01-30T05:13:42;50.80;;;25.77;;
28266;SDS011;15525;45.568;5.448;2024-01-30T05:16:07;46.30;;;24.55;;
28266;SDS011;15525;45.568;5.448;2024-01-30T05:18:33;47.13;;;24.38;;
28266;SDS011;15525;45.568;5.448;2024-01-30T05:20:58;50.75;;;26.17;;
28266;SDS011;15525;45.568;5.448;2024-01-30T05:23:24;53.08;;;26.67;;
28266;SDS011;15525;45.568;5.448;2024-01-30T05:25:49;49.45;;;25.33;;
28266;SDS011;15525;45.568;5.448;2024-01-30T05:28:14;51.15;;;27.00;;
28266;SDS011;15525;45.568;5.448;2024-01-30T05:30:40;49.80;;;26.92;;
28266;SDS011;15525;45.568;5.448;2024-01-30T05:33:05;57.45;;;28.77;;
28266;SDS011;15525;45.568;5.448;2024-01-30T05:35:31;56.50;;;26.90;;
28266;SDS011;15525;45.568;5.448;2024-01-30T05:37:56;46.30;;;25.52;;
28266;SDS011;15525;45.568;5.448;2024-01-30T05:40:21;48.72;;;25.70;;
28266;SDS011;15525;45.568;5.448;2024-01-30T05:42:47;47.67;;;24.92;;
28266;SDS011;15525;45.568;5.448;2024-01-30T05:45:12;54.72;;;28.25;;
28266;SDS011;15525;45.568;5.448;2024-01-30T05:47:38;53.70;;;27.02;;
28266;SDS011;15525;45.568;5.448;2024-01-30T05:50:04;54.30;;;27.58;;
28266;SDS011;15525;45.568;5.448;2024-01-30T05:52:30;54.13;;;27.02;;
28266;SDS011;15525;45.568;5.448;2024-01-30T05:54:55;52.05;;;26.30;;
28266;SDS011;15525;45.568;5.448;2024-01-30T05:57:21;49.83;;;26.33;;
28266;SDS011;15525;45.568;5.448;2024-01-30T05:59:46;49.75;;;26.30;;
28266;SDS011;15525;45.568;5.448;2024-01-30T06:02:13;49.60;;;25.95;;
28266;SDS011;15525;45.568;5.448;2024-01-30T06:04:38;53.08;;;27.65;;
28266;SDS011;15525;45.568;5.448;2024-01-30T06:07:04;48.20;;;26.23;;
28266;SDS011;15525;45.568;5.448;2024-01-30T06:09:31;52.65;;;26.02;;
28266;SDS011;15525;45.568;5.448;2024-01-30T06:11:57;56.72;;;27.80;;
28266;SDS011;15525;45.568;5.448;2024-01-30T06:14:22;57.17;;;27.88;;
28266;SDS011;15525;45.568;5.448;2024-01-30T06:16:48;54.97;;;26.05;;
28266;SDS011;15525;45.568;5.448;2024-01-30T06:19:14;52.80;;;26.52;;
28266;SDS011;15525;45.568;5.448;2024-01-30T06:21:39;53.25;;;26.13;;
28266;SDS011;15525;45.568;5.448;2024-01-30T06:24:04;52.88;;;26.38;;
28266;SDS011;15525;45.568;5.448;2024-01-30T06:26:30;52.58;;;28.23;;
28266;SDS011;15525;45.568;5.448;2024-01-30T06:28:55;54.60;;;27.05;;
28266;SDS011;15525;45.568;5.448;2024-01-30T06:31:21;53.40;;;27.00;;
28266;SDS011;15525;45.568;5.448;2024-01-30T06:33:49;56.30;;;28.33;;
28266;SDS011;15525;45.568;5.448;2024-01-30T06:36:15;53.63;;;27.13;;
28266;SDS011;15525;45.568;5.448;2024-01-30T06:38:41;56.92;;;28.08;;
28266;SDS011;15525;45.568;5.448;2024-01-30T06:41:06;60.47;;;28.88;;
28266;SDS011;15525;45.568;5.448;2024-01-30T06:43:32;63.00;;;29.92;;
28266;SDS011;15525;45.568;5.448;2024-01-30T06:45:57;74.47;;;33.97;;
28266;SDS011;15525;45.568;5.448;2024-01-30T06:48:23;72.22;;;34.53;;
28266;SDS011;15525;45.568;5.448;2024-01-30T06:50:48;71.38;;;33.97;;
28266;SDS011;15525;45.568;5.448;2024-01-30T06:53:14;75.57;;;34.83;;
28266;SDS011;15525;45.568;5.448;2024-01-30T06:55:40;68.22;;;33.10;;
28266;SDS011;15525;45.568;5.448;2024-01-30T06:58:05;72.03;;;35.80;;
28266;SDS011;15525;45.568;5.448;2024-01-30T07:00:31;74.78;;;36.63;;
28266;SDS011;15525;45.568;5.448;2024-01-30T07:02:56;69.40;;;34.40;;
28266;SDS011;15525;45.568;5.448;2024-01-30T07:05:21;60.25;;;31.05;;
28266;SDS011;15525;45.568;5.448;2024-01-30T07:07:47;61.75;;;29.92;;
28266;SDS011;15525;45.568;5.448;2024-01-30T07:10:12;66.15;;;29.50;;
28266;SDS011;15525;45.568;5.448;2024-01-30T07:12:38;55.38;;;29.85;;
28266;SDS011;15525;45.568;5.448;2024-01-30T07:15:04;64.53;;;31.85;;
28266;SDS011;15525;45.568;5.448;2024-01-30T07:17:33;53.63;;;27.92;;
28266;SDS011;15525;45.568;5.448;2024-01-30T07:19:58;56.22;;;28.95;;
28266;SDS011;15525;45.568;5.448;2024-01-30T07:22:24;67.93;;;30.55;;
28266;SDS011;15525;45.568;5.448;2024-01-30T07:24:49;64.93;;;30.90;;
28266;SDS011;15525;45.568;5.448;2024-01-30T07:27:16;64.70;;;31.75;;
28266;SDS011;15525;45.568;5.448;2024-01-30T07:29:42;59.92;;;29.02;;
28266;SDS011;15525;45.568;5.448;2024-01-30T07:32:08;65.75;;;32.10;;
28266;SDS011;15525;45.568;5.448;2024-01-30T07:34:33;56.72;;;28.88;;
28266;SDS011;15525;45.568;5.448;2024-01-30T07:36:59;63.97;;;30.85;;
28266;SDS011;15525;45.568;5.448;2024-01-30T07:39:24;59.63;;;30.05;;
28266;SDS011;15525;45.568;5.448;2024-01-30T07:41:50;68.60;;;33.08;;
28266;SDS011;15525;45.568;5.448;2024-01-30T07:44:15;60.30;;;30.73;;
28266;SDS011;15525;45.568;5.448;2024-01-30T07:46:41;62.00;;;29.10;;
28266;SDS011;15525;45.568;5.448;2024-01-30T07:49:06;54.42;;;27.60;;
28266;SDS011;15525;45.568;5.448;2024-01-30T07:51:31;56.50;;;29.17;;
28266;SDS011;15525;45.568;5.448;2024-01-30T07:53:58;61.10;;;30.05;;
28266;SDS011;15525;45.568;5.448;2024-01-30T07:56:23;59.92;;;31.75;;
28266;SDS011;15525;45.568;5.448;2024-01-30T07:58:49;64.63;;;32.25;;
28266;SDS011;15525;45.568;5.448;2024-01-30T08:01:14;65.68;;;33.30;;
28266;SDS011;15525;45.568;5.448;2024-01-30T08:03:40;68.57;;;34.25;;
28266;SDS011;15525;45.568;5.448;2024-01-30T08:06:06;65.38;;;33.97;;
28266;SDS011;15525;45.568;5.448;2024-01-30T08:08:32;73.20;;;35.75;;
28266;SDS011;15525;45.568;5.448;2024-01-30T08:10:58;69.95;;;35.78;;
28266;SDS011;15525;45.568;5.448;2024-01-30T08:13:23;79.03;;;37.65;;
28266;SDS011;15525;45.568;5.448;2024-01-30T08:15:49;83.28;;;37.83;;
28266;SDS011;15525;45.568;5.448;2024-01-30T08:18:14;77.85;;;39.28;;
28266;SDS011;15525;45.568;5.448;2024-01-30T08:20:39;85.70;;;43.25;;
28266;SDS011;15525;45.568;5.448;2024-01-30T08:23:05;84.03;;;40.80;;
28266;SDS011;15525;45.568;5.448;2024-01-30T08:25:31;78.82;;;39.63;;
28266;SDS011;15525;45.568;5.448;2024-01-30T08:27:56;81.95;;;38.17;;
28266;SDS011;15525;45.568;5.448;2024-01-30T08:30:22;83.97;;;37.85;;
28266;SDS011;15525;45.568;5.448;2024-01-30T08:32:47;73.97;;;37.70;;
28266;SDS011;15525;45.568;5.448;2024-01-30T08:35:13;74.82;;;37.13;;
28266;SDS011;15525;45.568;5.448;2024-01-30T08:37:40;78.30;;;38.95;;
28266;SDS011;15525;45.568;5.448;2024-01-30T08:40:07;72.43;;;36.42;;
28266;SDS011;15525;45.568;5.448;2024-01-30T08:42:33;77.00;;;37.25;;
28266;SDS011;15525;45.568;5.448;2024-01-30T08:44:59;71.57;;;36.05;;
28266;SDS011;15525;45.568;5.448;2024-01-30T08:47:24;64.40;;;33.10;;
28266;SDS011;15525;45.568;5.448;2024-01-30T08:49:50;65.22;;;34.97;;
28266;SDS011;15525;45.568;5.448;2024-01-30T08:52:16;67.70;;;33.28;;
28266;SDS011;15525;45.568;5.448;2024-01-30T08:54:42;68.07;;;33.85;;
28266;SDS011;15525;45.568;5.448;2024-01-30T08:57:08;63.65;;;32.38;;
28266;SDS011;15525;45.568;5.448;2024-01-30T08:59:33;57.85;;;31.00;;
28266;SDS011;15525;45.568;5.448;2024-01-30T09:01:59;65.90;;;32.47;;
28266;SDS011;15525;45.568;5.448;2024-01-30T09:04:24;59.63;;;31.83;;
28266;SDS011;15525;45.568;5.448;2024-01-30T09:06:50;60.17;;;30.13;;
28266;SDS011;15525;45.568;5.448;2024-01-30T09:09:16;55.58;;;28.48;;
28266;SDS011;15525;45.568;5.448;2024-01-30T09:11:42;47.13;;;24.80;;
28266;SDS011;15525;45.568;5.448;2024-01-30T09:14:08;42.28;;;22.83;;
28266;SDS011;15525;45.568;5.448;2024-01-30T09:16:34;38.97;;;21.88;;
28266;SDS011;15525;45.568;5.448;2024-01-30T09:18:59;42.25;;;21.92;;
28266;SDS011;15525;45.568;5.448;2024-01-30T09:21:24;39.83;;;21.23;;
28266;SDS011;15525;45.568;5.448;2024-01-30T09:23:50;37.15;;;20.73;;
28266;SDS011;15525;45.568;5.448;2024-01-30T09:26:15;37.22;;;20.15;;
28266;SDS011;15525;45.568;5.448;2024-01-30T09:28:41;32.17;;;19.08;;
28266;SDS011;15525;45.568;5.448;2024-01-30T09:31:11;36.60;;;19.90;;
28266;SDS011;15525;45.568;5.448;2024-01-30T09:33:37;36.78;;;20.67;;
28266;SDS011;15525;45.568;5.448;2024-01-30T09:36:03;36.35;;;20.25;;
28266;SDS011;15525;45.568;5.448;2024-01-30T09:38:28;36.70;;;19.80;;
28266;SDS011;15525;45.568;5.448;2024-01-30T09:40:54;35.88;;;19.25;;
28266;SDS011;15525;45.568;5.448;2024-01-30T09:43:23;31.58;;;18.05;;
28266;SDS011;15525;45.568;5.448;2024-01-30T09:45:51;33.83;;;17.98;;
28266;SDS011;15525;45.568;5.448;2024-01-30T09:48:19;29.92;;;17.17;;
28266;SDS011;15525;45.568;5.448;2024-01-30T09:50:44;33.47;;;17.17;;
28266;SDS011;15525;45.568;5.448;2024-01-30T09:53:11;27.85;;;16.20;;
28266;SDS011;15525;45.568;5.448;2024-01-30T09:55:38;29.98;;;17.27;;
28266;SDS011;15525;45.568;5.448;2024-01-30T09:58:05;35.75;;;17.80;;
28266;SDS011;15525;45.568;5.448;2024-01-30T10:00:30;29.10;;;16.92;;
28266;SDS011;15525;45.568;5.448;2024-01-30T10:02:56;32.42;;;17.02;;
28266;SDS011;15525;45.568;5.448;2024-01-30T10:05:22;27.70;;;16.15;;
28266;SDS011;15525;45.568;5.448;2024-01-30T10:07:56;27.80;;;16.85;;
28266;SDS011;15525;45.568;5.448;2024-01-30T10:10:22;27.80;;;15.18;;
28266;SDS011;15525;45.568;5.448;2024-01-30T10:12:48;25.23;;;15.30;;
28266;SDS011;15525;45.568;5.448;2024-01-30T10:15:14;41.50;;;15.73;;
28266;SDS011;15525;45.568;5.448;2024-01-30T10:17:40;28.58;;;14.18;;
28266;SDS011;15525;45.568;5.448;2024-01-30T10:20:05;21.95;;;12.77;;
28266;SDS011;15525;45.568;5.448;2024-01-30T10:22:32;21.08;;;12.30;;
28266;SDS011;15525;45.568;5.448;2024-01-30T10:24:58;17.67;;;11.52;;
28266;SDS011;15525;45.568;5.448;2024-01-30T10:27:28;22.42;;;11.38;;
28266;SDS011;15525;45.568;5.448;2024-01-30T10:29:54;20.30;;;11.13;;
28266;SDS011;15525;45.568;5.448;2024-01-30T10:32:21;19.00;;;10.30;;
28266;SDS011;15525;45.568;5.448;2024-01-30T10:34:46;17.08;;;10.57;;
28266;SDS011;15525;45.568;5.448;2024-01-30T10:37:12;20.50;;;12.20;;
28266;SDS011;15525;45.568;5.448;2024-01-30T10:39:41;22.90;;;13.25;;
28266;SDS011;15525;45.568;5.448;2024-01-30T10:42:11;18.88;;;12.52;;
28266;SDS011;15525;45.568;5.448;2024-01-30T10:44:43;18.15;;;11.18;;
28266;SDS011;15525;45.568;5.448;2024-01-30T10:47:21;16.98;;;11.23;;
28266;SDS011;15525;45.568;5.448;2024-01-30T10:49:51;19.02;;;10.98;;
28266;SDS011;15525;45.568;5.448;2024-01-30T10:52:18;18.08;;;11.45;;
28266;SDS011;15525;45.568;5.448;2024-01-30T10:54:45;23.48;;;13.15;;
28266;SDS011;15525;45.568;5.448;2024-01-30T10:57:12;22.20;;;13.00;;
28266;SDS011;15525;45.568;5.448;2024-01-30T10:59:40;23.98;;;13.10;;
28266;SDS011;15525;45.568;5.448;2024-01-30T11:02:07;20.30;;;12.27;;
28266;SDS011;15525;45.568;5.448;2024-01-30T11:04:38;26.70;;;13.13;;
28266;SDS011;15525;45.568;5.448;2024-01-30T11:12:24;19.92;;;12.95;;
28266;SDS011;15525;45.568;5.448;2024-01-30T11:15:37;20.25;;;13.13;;
28266;SDS011;15525;45.568;5.448;2024-01-30T11:20:14;18.05;;;11.35;;
28266;SDS011;15525;45.568;5.448;2024-01-30T11:23:01;20.38;;;11.73;;
28266;SDS011;15525;45.568;5.448;2024-01-30T11:25:31;21.27;;;11.98;;
28266;SDS011;15525;45.568;5.448;2024-01-30T11:27:57;20.33;;;12.07;;
28266;SDS011;15525;45.568;5.448;2024-01-30T11:33:05;20.67;;;12.48;;
28266;SDS011;15525;45.568;5.448;2024-01-30T11:35:40;17.73;;;10.73;;
28266;SDS011;15525;45.568;5.448;2024-01-30T11:38:13;18.38;;;11.50;;
28266;SDS011;15525;45.568;5.448;2024-01-30T11:40:39;16.17;;;10.18;;
28266;SDS011;15525;45.568;5.448;2024-01-30T11:43:06;17.30;;;10.95;;
28266;SDS011;15525;45.568;5.448;2024-01-30T11:45:34;17.52;;;11.77;;
28266;SDS011;15525;45.568;5.448;2024-01-30T11:48:01;20.58;;;11.43;;
28266;SDS011;15525;45.568;5.448;2024-01-30T11:50:35;18.15;;;11.05;;
28266;SDS011;15525;45.568;5.448;2024-01-30T11:53:03;22.95;;;10.88;;
28266;SDS011;15525;45.568;5.448;2024-01-30T11:55:30;20.15;;;11.20;;
28266;SDS011;15525;45.568;5.448;2024-01-30T11:57:56;16.05;;;10.68;;
28266;SDS011;15525;45.568;5.448;2024-01-30T12:00:23;14.27;;;9.88;;
28266;SDS011;15525;45.568;5.448;2024-01-30T12:02:49;15.70;;;9.55;;
28266;SDS011;15525;45.568;5.448;2024-01-30T12:05:16;15.27;;;9.25;;
28266;SDS011;15525;45.568;5.448;2024-01-30T12:07:45;16.90;;;9.10;;
28266;SDS011;15525;45.568;5.448;2024-01-30T12:10:13;15.48;;;10.38;;
28266;SDS011;15525;45.568;5.448;2024-01-30T12:12:39;16.05;;;9.48;;
28266;SDS011;15525;45.568;5.448;2024-01-30T12:15:07;15.10;;;9.65;;
28266;SDS011;15525;45.568;5.448;2024-01-30T12:17:33;12.57;;;8.30;;
28266;SDS011;15525;45.568;5.448;2024-01-30T12:20:12;11.85;;;8.32;;
28266;SDS011;15525;45.568;5.448;2024-01-30T12:22:39;12.30;;;7.30;;
28266;SDS011;15525;45.568;5.448;2024-01-30T12:25:12;9.48;;;6.63;;
28266;SDS011;15525;45.568;5.448;2024-01-30T12:27:39;14.97;;;8.00;;
28266;SDS011;15525;45.568;5.448;2024-01-30T12:30:07;9.75;;;6.15;;
28266;SDS011;15525;45.568;5.448;2024-01-30T12:32:36;9.23;;;5.72;;
28266;SDS011;15525;45.568;5.448;2024-01-30T12:35:13;10.93;;;6.05;;
28266;SDS011;15525;45.568;5.448;2024-01-30T12:37:40;8.98;;;5.47;;
28266;SDS011;15525;45.568;5.448;2024-01-30T12:40:07;9.40;;;5.90;;
28266;SDS011;15525;45.568;5.448;2024-01-30T12:42:33;9.35;;;5.22;;
28266;SDS011;15525;45.568;5.448;2024-01-30T12:44:58;8.18;;;5.60;;
28266;SDS011;15525;45.568;5.448;2024-01-30T12:47:24;9.35;;;5.32;;
28266;SDS011;15525;45.568;5.448;2024-01-30T12:49:50;6.78;;;5.00;;
28266;SDS011;15525;45.568;5.448;2024-01-30T12:52:19;8.05;;;4.88;;
28266;SDS011;15525;45.568;5.448;2024-01-30T12:54:45;9.68;;;5.32;;
28266;SDS011;15525;45.568;5.448;2024-01-30T12:57:11;8.45;;;5.45;;
28266;SDS011;15525;45.568;5.448;2024-01-30T12:59:36;9.05;;;5.75;;
28266;SDS011;15525;45.568;5.448;2024-01-30T13:02:01;11.80;;;5.78;;
28266;SDS011;15525;45.568;5.448;2024-01-30T13:04:28;9.65;;;5.18;;
28266;SDS011;15525;45.568;5.448;2024-01-30T13:06:54;9.68;;;5.82;;
28266;SDS011;15525;45.568;5.448;2024-01-30T13:09:19;11.20;;;6.25;;
28266;SDS011;15525;45.568;5.448;2024-01-30T13:11:45;9.07;;;6.20;;
28266;SDS011;15525;45.568;5.448;2024-01-30T13:14:11;9.63;;;5.70;;
28266;SDS011;15525;45.568;5.448;2024-01-30T13:16:36;8.43;;;5.57;;
28266;SDS011;15525;45.568;5.448;2024-01-30T13:19:02;11.07;;;5.72;;
28266;SDS011;15525;45.568;5.448;2024-01-30T13:21:27;9.20;;;6.00;;
28266;SDS011;15525;45.568;5.448;2024-01-30T13:23:53;8.85;;;5.68;;
28266;SDS011;15525;45.568;5.448;2024-01-30T13:26:20;8.65;;;5.32;;
28266;SDS011;15525;45.568;5.448;2024-01-30T13:28:45;9.48;;;5.10;;
28266;SDS011;15525;45.568;5.448;2024-01-30T13:31:11;9.85;;;5.75;;
28266;SDS011;15525;45.568;5.448;2024-01-30T13:33:37;10.13;;;5.75;;
28266;SDS011;15525;45.568;5.448;2024-01-30T13:36:03;10.48;;;5.20;;
28266;SDS011;15525;45.568;5.448;2024-01-30T13:38:28;8.93;;;5.40;;
28266;SDS011;15525;45.568;5.448;2024-01-30T13:40:54;7.22;;;4.97;;
28266;SDS011;15525;45.568;5.448;2024-01-30T13:43:19;10.55;;;5.35;;
28266;SDS011;15525;45.568;5.448;2024-01-30T13:45:45;7.72;;;4.90;;
28266;SDS011;15525;45.568;5.448;2024-01-30T13:48:11;8.80;;;5.32;;
28266;SDS011;15525;45.568;5.448;2024-01-30T13:50:37;11.13;;;5.63;;
28266;SDS011;15525;45.568;5.448;2024-01-30T13:53:02;7.85;;;5.40;;
28266;SDS011;15525;45.568;5.448;2024-01-30T13:55:29;9.15;;;5.00;;
28266;SDS011;15525;45.568;5.448;2024-01-30T13:57:54;6.80;;;5.03;;
28266;SDS011;15525;45.568;5.448;2024-01-30T14:00:21;9.45;;;6.05;;
28266;SDS011;15525;45.568;5.448;2024-01-30T14:02:47;9.13;;;6.30;;
28266;SDS011;15525;45.568;5.448;2024-01-30T14:05:13;10.30;;;5.30;;
28266;SDS011;15525;45.568;5.448;2024-01-30T14:07:39;9.73;;;5.82;;
28266;SDS011;15525;45.568;5.448;2024-01-30T14:10:06;14.88;;;6.28;;
28266;SDS011;15525;45.568;5.448;2024-01-30T14:12:32;13.38;;;8.13;;
28266;SDS011;15525;45.568;5.448;2024-01-30T14:14:57;14.77;;;8.38;;
28266;SDS011;15525;45.568;5.448;2024-01-30T14:17:23;14.68;;;8.13;;
28266;SDS011;15525;45.568;5.448;2024-01-30T14:19:48;16.38;;;8.80;;
28266;SDS011;15525;45.568;5.448;2024-01-30T14:22:13;13.05;;;8.65;;
28266;SDS011;15525;45.568;5.448;2024-01-30T14:24:39;12.45;;;8.00;;
28266;SDS011;15525;45.568;5.448;2024-01-30T14:27:04;14.50;;;8.07;;
28266;SDS011;15525;45.568;5.448;2024-01-30T14:29:30;10.93;;;7.15;;
28266;SDS011;15525;45.568;5.448;2024-01-30T14:31:55;11.85;;;7.40;;